Time,TemperatureF,DewpointF,PressureIn,WindDirection,WindDirectionDegrees,WindSpeedMPH,WindSpeedGustMPH,Humidity,HourlyPrecipIn,Conditions,Clouds,dailyrainin,SoftwareType,DateUTC
2013-06-28 00:00:00,75.9,75.9,29.70,SSW,203,0.0,5.0,100,0.00,,,0.00,WeatherDisplay:10.37,2013-06-28 04:00:00,
2013-06-28 00:23:00,75.5,75.5,29.69,SSW,201,0.0,2.0,100,0.00,,,0.00,WeatherDisplay:10.37,2013-06-28 04:23:00,
2013-06-28 01:00:00,74.7,74.7,29.68,SSW,201,0.0,3.0,100,0.00,,,0.00,WeatherDisplay:10.37,2013-06-28 05:00:00,
2013-06-28 02:00:00,73.9,73.9,29.68,SW,236,0.0,6.0,100,0.00,,,0.00,WeatherDisplay:10.37,2013-06-28 06:00:00,
2013-06-28 03:00:00,73.8,73.8,29.67,SW,224,2.0,9.0,100,0.00,,,0.00,WeatherDisplay:10.37,2013-06-28 07:00:00,
2013-06-28 04:00:00,73.5,73.5,29.65,SW,234,2.0,12.0,100,0.00,,,0.00,WeatherDisplay:10.37,2013-06-28 08:00:00,
2013-06-28 05:00:00,73.8,73.8,29.64,SW,221,3.0,13.0,100,0.00,,,0.00,WeatherDisplay:10.37,2013-06-28 09:00:00,
2013-06-28 06:00:00,73.8,73.8,29.64,WSW,238,3.0,12.0,100,0.00,,,0.00,WeatherDisplay:10.37,2013-06-28 10:00:00,
2013-06-28 07:00:00,73.6,73.6,29.64,SW,222,0.0,8.0,100,0.00,,,0.00,WeatherDisplay:10.37,2013-06-28 11:00:00,
2013-06-28 08:00:00,74.8,74.8,29.64,WSW,237,3.0,12.0,100,0.00,,,0.00,WeatherDisplay:10.37,2013-06-28 12:00:00,
2013-06-28 09:00:00,79.3,79.3,29.65,WSW,242,1.0,8.0,100,0.00,,,0.00,WeatherDisplay:10.37,2013-06-28 13:00:00,
2013-06-28 10:00:00,83.2,83.2,29.64,SW,233,0.0,7.0,100,0.00,,,0.00,WeatherDisplay:10.37,2013-06-28 14:00:00,
2013-06-28 11:00:00,85.6,85.6,29.64,WSW,256,3.0,9.0,100,0.00,,,0.00,WeatherDisplay:10.37,2013-06-28 15:00:00,
2013-06-28 12:00:00,88.0,88.0,29.63,SW,222,2.0,10.0,100,0.00,,,0.00,WeatherDisplay:10.37,2013-06-28 16:00:00,
2013-06-28 13:00:00,89.0,89.0,29.62,WSW,253,2.0,8.0,100,0.00,,,0.00,WeatherDisplay:10.37,2013-06-28 17:00:00,
2013-06-28 14:00:00,90.6,90.6,29.60,SW,221,1.0,10.0,100,0.00,,,0.00,WeatherDisplay:10.37,2013-06-28 18:00:00,
2013-06-28 15:00:00,89.6,89.6,29.59,WSW,246,1.0,12.0,100,0.00,,,0.00,WeatherDisplay:10.37,2013-06-28 19:00:00,
2013-06-28 16:00:00,90.0,90.0,29.55,WSW,250,1.0,12.0,100,0.00,,,0.00,WeatherDisplay:10.37,2013-06-28 20:00:00,
2013-06-28 17:00:00,89.6,89.6,29.52,SW,217,2.0,13.0,100,0.00,,,0.00,WeatherDisplay:10.37,2013-06-28 21:00:00,
2013-06-28 18:00:00,84.8,84.8,29.56,SW,235,1.0,10.0,100,0.00,,,0.00,WeatherDisplay:10.37,2013-06-28 22:00:00,
2013-06-28 19:00:00,73.6,73.0,29.58,South,186,0.0,12.0,98,0.26,RA,,0.26,WeatherDisplay:10.37,2013-06-28 23:00:00,
2013-06-28 20:00:00,72.3,72.3,29.55,SW,234,0.0,12.0,100,0.01,,,0.27,WeatherDisplay:10.37,2013-06-29 00:00:00,
2013-06-28 21:00:00,72.3,72.3,29.56,SW,228,1.0,9.0,100,0.00,,,0.27,WeatherDisplay:10.37,2013-06-29 01:00:00,
2013-06-28 22:00:00,72.4,72.4,29.57,SSW,199,1.0,8.0,100,0.00,,,0.27,WeatherDisplay:10.37,2013-06-29 02:00:00,
2013-06-28 23:00:00,72.0,72.0,29.61,SW,229,1.0,9.0,100,0.08,RA,,0.35,WeatherDisplay:10.37,2013-06-29 03:00:00,